KMWA

Veterans Of Southern Illinois Airport

Marion, Illinois, USA
METAR KMWA 161015Z AUTO 18008KT 10SM CLR M01/M01 A3010 RMK AO2 T10091012
Observed Flight Rules
Dec-16 @ 10:15 UTC (31 minutes ago) Visual Flight Rules
Wind Visibility Clouds
180° at 8 knots 10 miles
  • Clear skies
Temperatures Readings
Current -1°C / 30°F
Dewpoint -1°C / 30°F
Humidity 100%
Altimeter 30.1" Hg
Pressure 1019 hPa
Elevation 144
METAR KMWA 161015Z AUTO 18008KT 10SM CLR M01/M01 A3010 RMK AO2 T10091012
Observed Flight Rules
Dec-16 @ 10:15 UTC
(31 minutes ago)
VFR
Wind Visibility
180° at 8 knots 10 miles
Clouds
  • Clear skies
Temperature Dewpoint
-1°C / 30°F -1°C / 30°F
Humidity Altimeter Pressure
100% 30.1" Hg 1019 hPa